createdAt,value
2022-11-21T00:00:30.565Z,997.32
2022-11-21T00:01:01.650Z,997.22
2022-11-21T00:01:34.734Z,997.32
2022-11-21T00:02:05.855Z,997.32
2022-11-21T00:02:33.932Z,997.32
2022-11-21T00:03:09.696Z,997.32
2022-11-21T00:03:34.078Z,997.32
2022-11-21T00:03:58.411Z,997.32
2022-11-21T00:04:29.949Z,997.32
2022-11-21T00:05:03.042Z,997.32
2022-11-21T00:05:33.620Z,997.22
2022-11-21T00:06:06.527Z,997.22
2022-11-21T00:06:33.926Z,997.32
2022-11-21T00:06:53.730Z,997.32
2022-11-21T00:07:25.640Z,997.32
2022-11-21T00:07:57.560Z,997.43
2022-11-21T00:08:29.795Z,997.43
2022-11-21T00:09:01.820Z,997.22
2022-11-21T00:09:33.608Z,997.43
2022-11-21T00:10:05.784Z,997.43
2022-11-21T00:10:34.084Z,997.22
2022-11-21T00:10:53.831Z,997.22
2022-11-21T00:11:26.544Z,997.22
2022-11-21T00:11:57.576Z,997.22
2022-11-21T00:12:30.476Z,997.22
2022-11-21T00:13:01.698Z,997.32
2022-11-21T00:13:35.093Z,997.22
2022-11-21T00:14:05.600Z,997.22
2022-11-21T00:14:34.117Z,997.12
2022-11-21T00:14:53.653Z,997.12
2022-11-21T00:15:25.978Z,997.12
2022-11-21T00:15:58.595Z,997.22
2022-11-21T00:16:29.624Z,997.22
2022-11-21T00:17:02.618Z,997.22
2022-11-21T00:17:33.720Z,997.22
2022-11-21T00:18:22.285Z,997.22
2022-11-21T00:18:39.520Z,997.22
2022-11-21T00:19:09.644Z,997.22
2022-11-21T00:19:34.139Z,997.12
2022-11-21T00:19:57.820Z,997.12
2022-11-21T00:20:31.274Z,997.12
2022-11-21T00:21:01.578Z,997.22
2022-11-21T00:21:34.731Z,997.12
2022-11-21T00:22:05.733Z,997.12
2022-11-21T00:22:33.977Z,997.22
2022-11-21T00:22:53.625Z,997.22
2022-11-21T00:23:26.256Z,997.22
2022-11-21T00:23:58.425Z,997.22
2022-11-21T00:24:29.922Z,997.22
2022-11-21T00:25:02.759Z,997.12
2022-11-21T00:25:34.045Z,997.02
2022-11-21T00:26:06.659Z,997.02
2022-11-21T00:26:33.943Z,997.12
2022-11-21T00:26:53.615Z,997.12
2022-11-21T00:27:25.637Z,997.12
2022-11-21T00:27:57.609Z,997.02
2022-11-21T00:28:29.792Z,997.02
2022-11-21T00:29:01.618Z,997.02
2022-11-21T00:29:33.567Z,997.12
2022-11-21T00:30:05.836Z,997.12
2022-11-21T00:30:33.998Z,997.02
2022-11-21T00:30:53.885Z,997.02
2022-11-21T00:31:26.485Z,997.02
2022-11-21T00:31:57.613Z,997.32
2022-11-21T00:32:30.594Z,997.32
2022-11-21T00:33:02.052Z,997.22
2022-11-21T00:33:35.780Z,997.32
2022-11-21T00:34:05.615Z,997.32
2022-11-21T00:34:34.164Z,997.12
2022-11-21T00:34:53.827Z,997.12
2022-11-21T00:35:25.961Z,997.12
2022-11-21T00:35:58.339Z,997.22
2022-11-21T00:36:29.616Z,997.22
2022-11-21T00:37:02.732Z,997.32
2022-11-21T00:37:34.049Z,997.22
2022-11-21T00:38:06.379Z,997.22
2022-11-21T00:38:34.348Z,997.22
2022-11-21T00:38:53.595Z,997.22
2022-11-21T00:39:25.752Z,997.22
2022-11-21T00:39:57.723Z,997.32
2022-11-21T00:40:29.781Z,997.32
2022-11-21T00:41:01.594Z,997.22
2022-11-21T00:41:34.057Z,997.22
2022-11-21T00:42:05.836Z,997.22
2022-11-21T00:42:35.119Z,997.12
2022-11-21T00:42:53.631Z,997.12
2022-11-21T00:43:26.558Z,997.12
2022-11-21T00:43:57.794Z,997.32
2022-11-21T00:44:35.568Z,997.12
2022-11-21T00:45:01.706Z,997.12
2022-11-21T00:45:33.579Z,997.12
2022-11-21T00:46:05.769Z,997.12
2022-11-21T00:46:33.924Z,997.32
2022-11-21T00:46:54.597Z,997.32
2022-11-21T00:47:25.624Z,997.32
2022-11-21T00:47:58.685Z,997.12
2022-11-21T00:48:29.743Z,997.12
2022-11-21T00:49:02.382Z,997.02
2022-11-21T00:49:33.590Z,997.12
2022-11-21T00:50:06.806Z,997.12
2022-11-21T00:50:33.972Z,997.02
2022-11-21T00:50:53.841Z,997.02
2022-11-21T00:51:25.618Z,997.02
2022-11-21T00:51:57.586Z,996.82
2022-11-21T00:52:29.632Z,996.82
2022-11-21T00:53:01.778Z,997.22
2022-11-21T00:53:34.142Z,997.02
2022-11-21T00:54:05.632Z,997.02
2022-11-21T00:54:34.137Z,996.92
2022-11-21T00:54:53.699Z,996.92
2022-11-21T00:55:26.787Z,996.92
2022-11-21T00:55:57.551Z,997.02
2022-11-21T00:56:30.605Z,997.02
2022-11-21T00:57:01.767Z,996.82
2022-11-21T00:57:35.546Z,996.92
2022-11-21T00:58:05.627Z,996.92
2022-11-21T00:58:34.540Z,997.02
2022-11-21T00:58:53.620Z,997.02
2022-11-21T00:59:25.712Z,997.02
2022-11-21T00:59:58.453Z,997.12
2022-11-21T01:00:29.866Z,997.12
2022-11-21T01:01:02.599Z,996.92
2022-11-21T01:01:33.739Z,997.02
2022-11-21T01:02:06.465Z,997.02
2022-11-21T01:02:34.045Z,996.92
2022-11-21T01:02:53.591Z,996.92
2022-11-21T01:03:25.734Z,996.92
2022-11-21T01:03:57.754Z,996.92
2022-11-21T01:04:29.743Z,996.92
2022-11-21T01:05:01.741Z,996.82
2022-11-21T01:05:33.563Z,997.12
2022-11-21T01:06:05.756Z,997.12
2022-11-21T01:06:34.743Z,997.02
2022-11-21T01:06:53.590Z,997.02
2022-11-21T01:07:26.578Z,997.02
2022-11-21T01:07:57.595Z,996.92
2022-11-21T01:08:30.621Z,996.92
2022-11-21T01:09:01.584Z,996.92
2022-11-21T01:09:34.528Z,996.92
2022-11-21T01:10:05.854Z,996.92
2022-11-21T01:10:33.941Z,997.12
2022-11-21T01:10:53.808Z,997.12
2022-11-21T01:11:26.442Z,997.12
2022-11-21T01:11:57.582Z,997.02
2022-11-21T01:12:30.579Z,997.02
2022-11-21T01:13:01.750Z,997.02
2022-11-21T01:13:34.419Z,996.92
2022-11-21T01:14:05.574Z,996.92
2022-11-21T01:14:33.997Z,997.22
2022-11-21T01:14:53.770Z,997.22
2022-11-21T01:15:25.925Z,997.22
2022-11-21T01:15:58.421Z,997.02
2022-11-21T01:16:29.705Z,997.02
2022-11-21T01:17:02.304Z,997.02
2022-11-21T01:17:33.624Z,997.02
2022-11-21T01:18:06.399Z,997.02
2022-11-21T01:18:34.140Z,997.02
2022-11-21T01:18:53.822Z,997.02
2022-11-21T01:19:25.743Z,997.02
2022-11-21T01:19:57.639Z,997.22
2022-11-21T01:20:29.714Z,997.22
2022-11-21T01:21:01.635Z,997.02
2022-11-21T01:21:33.760Z,997.22
2022-11-21T01:22:05.858Z,997.22
2022-11-21T01:22:34.099Z,997.22
2022-11-21T01:22:53.587Z,997.22
2022-11-21T01:23:26.547Z,997.22
2022-11-21T01:23:57.710Z,997.12
2022-11-21T01:24:30.475Z,997.12
2022-11-21T01:25:01.732Z,997.02
2022-11-21T01:25:35.765Z,997.12
2022-11-21T01:26:05.584Z,997.12
2022-11-21T01:26:34.137Z,996.92
2022-11-21T01:26:53.754Z,996.92
2022-11-21T01:27:25.788Z,996.92
2022-11-21T01:27:58.364Z,997.12
2022-11-21T01:28:29.639Z,997.12
2022-11-21T01:29:02.497Z,997.32
2022-11-21T01:29:33.760Z,997.22
2022-11-21T01:30:06.968Z,997.22
2022-11-21T01:30:34.042Z,997.02
2022-11-21T01:30:53.715Z,997.02
2022-11-21T01:31:25.681Z,997.02
2022-11-21T01:31:57.899Z,997.32
2022-11-21T01:32:29.582Z,997.32
2022-11-21T01:33:01.804Z,997.12
2022-11-21T01:33:34.076Z,997.22
2022-11-21T01:34:05.816Z,997.22
2022-11-21T01:34:33.996Z,997.12
2022-11-21T01:34:53.589Z,997.12
2022-11-21T01:35:26.813Z,997.12
2022-11-21T01:35:57.701Z,997.12
2022-11-21T01:36:30.268Z,997.12
2022-11-21T01:37:01.757Z,997.12
2022-11-21T01:37:34.935Z,996.92
2022-11-21T01:38:05.622Z,996.92
2022-11-21T01:38:33.932Z,997.22
2022-11-21T01:38:53.733Z,997.22
2022-11-21T01:39:25.744Z,997.22
2022-11-21T01:39:58.889Z,997.32
2022-11-21T01:40:29.722Z,997.32
2022-11-21T01:41:02.682Z,997.22
2022-11-21T01:41:33.857Z,997.02
2022-11-21T01:42:06.350Z,997.02
2022-11-21T01:42:34.085Z,997.22
2022-11-21T01:42:53.626Z,997.22
2022-11-21T01:43:25.766Z,997.22
2022-11-21T01:43:57.607Z,997.12
2022-11-21T01:44:29.882Z,997.12
2022-11-21T01:45:01.732Z,997.12
2022-11-21T01:45:35.068Z,997.02
2022-11-21T01:46:05.580Z,997.02
2022-11-21T01:46:34.254Z,996.92
2022-11-21T01:46:53.682Z,996.92
2022-11-21T01:47:26.654Z,996.92
2022-11-21T01:47:57.739Z,996.92
2022-11-21T01:48:30.357Z,996.92
2022-11-21T01:49:01.555Z,997.02
2022-11-21T01:49:34.770Z,996.82
2022-11-21T01:50:10.413Z,996.82
2022-11-21T01:50:34.040Z,997.12
2022-11-21T01:50:53.763Z,997.12
2022-11-21T01:51:25.624Z,997.12
2022-11-21T01:51:58.578Z,997.22
2022-11-21T01:52:29.767Z,997.22
2022-11-21T01:53:02.293Z,997.22
2022-11-21T01:53:34.116Z,997.12
2022-11-21T01:54:06.714Z,997.12
2022-11-21T01:54:33.977Z,997.32
2022-11-21T01:54:53.767Z,997.32
2022-11-21T01:55:25.692Z,997.32
2022-11-21T01:55:57.562Z,997.22
2022-11-21T01:56:29.984Z,997.22
2022-11-21T01:57:01.728Z,997.22
2022-11-21T01:57:34.255Z,996.92
2022-11-21T01:58:05.642Z,996.92
2022-11-21T01:58:33.951Z,997.12
2022-11-21T01:58:53.797Z,997.12
2022-11-21T01:59:26.585Z,997.12
2022-11-21T01:59:57.612Z,997.12
2022-11-21T02:00:30.803Z,997.12
2022-11-21T02:01:01.800Z,997.02
2022-11-21T02:01:34.585Z,997.22
2022-11-21T02:02:05.593Z,997.22
2022-11-21T02:02:34.394Z,997.02
2022-11-21T02:02:53.630Z,997.02
2022-11-21T02:03:25.753Z,997.02
2022-11-21T02:03:58.520Z,997.32
2022-11-21T02:04:29.798Z,997.32
2022-11-21T02:05:02.884Z,997.02
2022-11-21T02:05:33.730Z,997.12
2022-11-21T02:06:06.851Z,997.12
2022-11-21T02:06:34.090Z,997.22
2022-11-21T02:06:53.667Z,997.22
2022-11-21T02:07:25.743Z,997.22
2022-11-21T02:07:57.766Z,997.02
2022-11-21T02:08:29.662Z,997.02
2022-11-21T02:09:01.624Z,997.12
2022-11-21T02:09:33.921Z,997.22
2022-11-21T02:10:05.966Z,997.22
2022-11-21T02:10:33.930Z,997.22
2022-11-21T02:10:53.699Z,997.22
2022-11-21T02:11:26.593Z,997.22
2022-11-21T02:11:57.682Z,997.02
2022-11-21T02:12:30.348Z,997.02
2022-11-21T02:13:01.627Z,997.02
2022-11-21T02:13:34.884Z,997.02
2022-11-21T02:14:05.874Z,997.02
2022-11-21T02:14:34.828Z,997.02
2022-11-21T02:14:53.691Z,997.02
2022-11-21T02:15:25.977Z,997.02
2022-11-21T02:15:58.529Z,996.82
2022-11-21T02:16:29.744Z,996.82
2022-11-21T02:17:02.311Z,996.92
2022-11-21T02:17:33.607Z,997.12
2022-11-21T02:18:06.609Z,997.12
2022-11-21T02:18:34.058Z,996.71
2022-11-21T02:18:53.731Z,996.71
2022-11-21T02:19:25.655Z,996.71
2022-11-21T02:19:57.577Z,997.02
2022-11-21T02:20:29.760Z,997.02
2022-11-21T02:21:01.759Z,996.92
2022-11-21T02:21:34.181Z,997.02
2022-11-21T02:22:05.660Z,997.02
2022-11-21T02:22:34.084Z,997.02
2022-11-21T02:22:53.788Z,997.02
2022-11-21T02:23:26.351Z,997.02
2022-11-21T02:24:00.336Z,997.12
2022-11-21T02:24:30.634Z,997.12
2022-11-21T02:25:01.920Z,997.02
2022-11-21T02:25:34.959Z,997.02
2022-11-21T02:26:05.640Z,997.02
2022-11-21T02:26:34.119Z,997.02
2022-11-21T02:26:53.659Z,997.02
2022-11-21T02:27:25.811Z,997.02
2022-11-21T02:27:58.337Z,997.12
2022-11-21T02:28:29.582Z,997.12
2022-11-21T02:29:02.724Z,997.02
2022-11-21T02:29:33.736Z,997.12
2022-11-21T02:30:06.619Z,997.12
2022-11-21T02:30:33.989Z,997.02
2022-11-21T02:30:54.028Z,997.02
2022-11-21T02:31:25.687Z,997.02
2022-11-21T02:31:57.709Z,997.22
2022-11-21T02:32:29.826Z,997.22
2022-11-21T02:33:01.723Z,997.12
2022-11-21T02:33:33.691Z,997.12
2022-11-21T02:34:05.786Z,997.12
2022-11-21T02:34:34.040Z,997.02
2022-11-21T02:34:53.560Z,997.02
2022-11-21T02:35:26.605Z,997.02
2022-11-21T02:35:57.975Z,997.02
2022-11-21T02:36:30.152Z,997.02
2022-11-21T02:37:17.589Z,996.92
2022-11-21T02:37:49.654Z,997.22
2022-11-21T02:38:21.778Z,997.22
2022-11-21T02:38:39.508Z,997.22
2022-11-21T02:39:09.663Z,997.22
2022-11-21T02:39:35.146Z,997.12
2022-11-21T02:39:57.644Z,997.12
2022-11-21T02:40:29.880Z,997.12
2022-11-21T02:41:02.435Z,996.92
2022-11-21T02:41:33.623Z,997.02
2022-11-21T02:42:06.718Z,997.02
2022-11-21T02:42:33.941Z,997.12
2022-11-21T02:42:53.773Z,997.12
2022-11-21T02:43:25.776Z,997.12
2022-11-21T02:43:57.608Z,997.02
2022-11-21T02:44:29.996Z,997.02
2022-11-21T02:45:01.982Z,997.22
2022-11-21T02:45:33.619Z,997.02
2022-11-21T02:46:05.646Z,997.02
2022-11-21T02:46:34.120Z,997.02
2022-11-21T02:46:53.792Z,997.02
2022-11-21T02:47:26.383Z,997.02
2022-11-21T02:48:03.402Z,997.22
2022-11-21T02:48:30.494Z,997.22
2022-11-21T02:49:01.647Z,997.12
2022-11-21T02:49:35.055Z,997.22
2022-11-21T02:50:05.912Z,997.22
2022-11-21T02:50:34.431Z,997.12
2022-11-21T02:50:53.755Z,997.12
2022-11-21T02:51:25.702Z,997.12
2022-11-21T02:51:58.353Z,997.12
2022-11-21T02:52:29.735Z,997.12
2022-11-21T02:53:02.470Z,997.12
2022-11-21T02:53:33.734Z,997.22
2022-11-21T02:54:06.436Z,997.22
2022-11-21T02:54:33.955Z,997.12
2022-11-21T02:54:53.689Z,997.12
2022-11-21T02:55:25.869Z,997.12
2022-11-21T02:55:57.751Z,997.22
2022-11-21T02:56:29.760Z,997.22
2022-11-21T02:57:01.616Z,997.22
2022-11-21T02:57:33.692Z,997.12
2022-11-21T02:58:05.899Z,997.12
2022-11-21T02:58:33.944Z,997.32
2022-11-21T02:58:53.674Z,997.32
2022-11-21T02:59:26.636Z,997.32
2022-11-21T02:59:57.603Z,997.02
2022-11-21T03:00:30.763Z,997.02
2022-11-21T03:01:01.920Z,997.12
2022-11-21T03:01:34.597Z,997.12
2022-11-21T03:02:05.602Z,997.12
2022-11-21T03:02:34.094Z,997.32
2022-11-21T03:02:53.792Z,997.32
2022-11-21T03:03:25.736Z,997.32
2022-11-21T03:03:58.495Z,997.32
2022-11-21T03:04:29.967Z,997.32
2022-11-21T03:05:02.577Z,997.32
2022-11-21T03:05:33.636Z,997.02
2022-11-21T03:06:06.283Z,997.02
2022-11-21T03:06:33.948Z,997.02
2022-11-21T03:06:53.664Z,997.02
2022-11-21T03:07:25.748Z,997.02
2022-11-21T03:07:57.693Z,997.02
2022-11-21T03:08:30.515Z,997.02
2022-11-21T03:09:01.617Z,997.12
2022-11-21T03:09:35.612Z,997.12
2022-11-21T03:10:05.779Z,997.12
2022-11-21T03:10:33.956Z,997.02
2022-11-21T03:10:53.843Z,997.02
2022-11-21T03:11:25.700Z,997.02
2022-11-21T03:11:58.542Z,996.92
2022-11-21T03:12:29.727Z,996.92
2022-11-21T03:13:02.562Z,997.02
2022-11-21T03:13:33.650Z,997.02
2022-11-21T03:14:06.550Z,997.02
2022-11-21T03:14:34.117Z,997.12
2022-11-21T03:14:53.747Z,997.12
2022-11-21T03:15:26.035Z,997.12
2022-11-21T03:15:57.588Z,997.12
2022-11-21T03:16:29.588Z,997.12
2022-11-21T03:17:01.810Z,997.22
2022-11-21T03:17:33.809Z,997.22
2022-11-21T03:18:05.657Z,997.22
2022-11-21T03:18:34.086Z,996.92
2022-11-21T03:18:53.687Z,996.92
2022-11-21T03:19:27.073Z,996.92
2022-11-21T03:19:57.628Z,997.02
2022-11-21T03:20:30.703Z,997.02
2022-11-21T03:21:01.567Z,997.12
2022-11-21T03:21:34.497Z,997.02
2022-11-21T03:22:05.867Z,997.02
2022-11-21T03:22:34.125Z,996.71
2022-11-21T03:22:53.693Z,996.71
2022-11-21T03:23:25.818Z,996.71
2022-11-21T03:23:58.479Z,997.22
2022-11-21T03:24:29.832Z,997.22
2022-11-21T03:25:02.932Z,997.12
2022-11-21T03:25:33.854Z,997.22
2022-11-21T03:26:06.397Z,997.22
2022-11-21T03:26:34.006Z,997.02
2022-11-21T03:26:53.607Z,997.02
2022-11-21T03:27:25.725Z,997.02
2022-11-21T03:27:57.812Z,996.92
2022-11-21T03:28:29.757Z,996.92
2022-11-21T03:29:01.617Z,996.92
2022-11-21T03:29:33.628Z,997.12
2022-11-21T03:30:06.215Z,997.12
2022-11-21T03:30:33.961Z,997.02
2022-11-21T03:30:53.767Z,997.02
2022-11-21T03:31:26.499Z,997.02
2022-11-21T03:31:57.644Z,997.02
2022-11-21T03:32:30.782Z,997.02
2022-11-21T03:33:01.827Z,997.12
2022-11-21T03:33:34.753Z,997.12
2022-11-21T03:34:05.829Z,997.12
2022-11-21T03:34:34.731Z,997.22
2022-11-21T03:34:53.746Z,997.22
2022-11-21T03:35:25.849Z,997.22
2022-11-21T03:35:58.463Z,997.12
2022-11-21T03:36:29.820Z,997.12
2022-11-21T03:37:02.501Z,997.12
2022-11-21T03:37:33.691Z,997.12
2022-11-21T03:38:06.622Z,997.12
2022-11-21T03:38:34.141Z,997.22
2022-11-21T03:38:53.745Z,997.22
2022-11-21T03:39:25.842Z,997.22
2022-11-21T03:39:57.581Z,997.02
2022-11-21T03:40:29.823Z,997.02
2022-11-21T03:41:01.950Z,997.22
2022-11-21T03:41:33.617Z,996.92
2022-11-21T03:42:05.681Z,996.92
2022-11-21T03:42:34.657Z,997.12
2022-11-21T03:42:53.735Z,997.12
2022-11-21T03:43:26.542Z,997.12
2022-11-21T03:43:57.633Z,997.12
2022-11-21T03:44:30.744Z,997.12
2022-11-21T03:45:01.912Z,996.92
2022-11-21T03:45:35.044Z,997.02
2022-11-21T03:46:05.799Z,997.02
2022-11-21T03:46:34.676Z,997.12
2022-11-21T03:46:53.601Z,997.12
2022-11-21T03:47:25.802Z,997.12
2022-11-21T03:47:58.955Z,996.92
2022-11-21T03:48:29.573Z,996.92
2022-11-21T03:49:02.764Z,997.12
2022-11-21T03:49:33.773Z,997.12
2022-11-21T03:50:22.933Z,997.12
2022-11-21T03:50:39.749Z,997.22
2022-11-21T03:51:09.628Z,997.22
2022-11-21T03:51:34.697Z,996.92
2022-11-21T03:51:58.000Z,996.92
2022-11-21T03:52:31.063Z,996.92
2022-11-21T03:53:02.039Z,997.12
2022-11-21T03:53:34.585Z,997.02
2022-11-21T03:54:05.811Z,997.02
2022-11-21T03:54:33.969Z,996.92
2022-11-21T03:54:53.757Z,996.92
2022-11-21T03:55:25.868Z,996.92
2022-11-21T03:55:58.634Z,996.92
2022-11-21T03:56:29.754Z,996.92
2022-11-21T03:57:02.629Z,997.02
2022-11-21T03:57:33.597Z,996.92
2022-11-21T03:58:06.470Z,996.92
2022-11-21T03:58:34.148Z,996.82
2022-11-21T03:58:53.756Z,996.82
2022-11-21T03:59:25.853Z,996.82
2022-11-21T03:59:57.601Z,997.02
2022-11-21T04:00:29.841Z,997.02
2022-11-21T04:01:01.878Z,996.92
2022-11-21T04:01:36.602Z,997.02
2022-11-21T04:02:05.724Z,997.02
2022-11-21T04:02:34.166Z,997.22
2022-11-21T04:02:53.703Z,997.22
2022-11-21T04:03:26.644Z,997.22
2022-11-21T04:03:57.603Z,997.32
2022-11-21T04:04:30.864Z,997.32
2022-11-21T04:05:01.857Z,997.12
2022-11-21T04:05:34.988Z,997.12
2022-11-21T04:06:05.632Z,997.12
2022-11-21T04:06:34.118Z,997.12
2022-11-21T04:06:53.601Z,997.12
2022-11-21T04:07:25.856Z,997.12
2022-11-21T04:07:58.441Z,997.12
2022-11-21T04:08:29.599Z,997.12
2022-11-21T04:09:02.481Z,996.92
2022-11-21T04:09:34.047Z,997.12
2022-11-21T04:10:06.941Z,997.12
2022-11-21T04:10:34.003Z,997.12
2022-11-21T04:10:53.714Z,997.12
2022-11-21T04:11:26.602Z,997.12
2022-11-21T04:11:57.777Z,997.02
2022-11-21T04:12:30.352Z,997.02
2022-11-21T04:13:01.615Z,997.02
2022-11-21T04:13:34.647Z,997.22
2022-11-21T04:14:05.800Z,997.22
2022-11-21T04:14:33.948Z,997.22
2022-11-21T04:14:53.635Z,997.22
2022-11-21T04:15:25.930Z,997.22
2022-11-21T04:15:58.753Z,997.32
2022-11-21T04:16:29.742Z,997.32
2022-11-21T04:17:02.659Z,997.12
2022-11-21T04:17:33.589Z,997.02
2022-11-21T04:18:06.738Z,997.02
2022-11-21T04:18:34.622Z,997.22
2022-11-21T04:18:53.736Z,997.22
2022-11-21T04:19:25.811Z,997.22
2022-11-21T04:19:57.589Z,997.22
2022-11-21T04:20:29.987Z,997.22
2022-11-21T04:21:01.789Z,997.02
2022-11-21T04:21:33.592Z,997.02
2022-11-21T04:22:22.620Z,997.02
2022-11-21T04:22:39.749Z,997.12
2022-11-21T04:23:10.000Z,997.12
2022-11-21T04:23:34.081Z,997.43
2022-11-21T04:23:57.674Z,997.43
2022-11-21T04:24:30.716Z,997.43
2022-11-21T04:25:01.856Z,997.12
2022-11-21T04:25:34.709Z,997.12
2022-11-21T04:26:05.851Z,997.12
2022-11-21T04:26:34.150Z,997.22
2022-11-21T04:26:53.599Z,997.22
2022-11-21T04:27:25.764Z,997.22
2022-11-21T04:27:58.394Z,997.22
2022-11-21T04:28:29.604Z,997.22
2022-11-21T04:29:02.525Z,997.12
2022-11-21T04:29:34.012Z,997.22
2022-11-21T04:30:06.684Z,997.22
2022-11-21T04:30:33.981Z,997.22
2022-11-21T04:30:55.004Z,997.22
2022-11-21T04:31:25.681Z,997.22
2022-11-21T04:31:57.793Z,997.02
2022-11-21T04:32:29.734Z,997.02
2022-11-21T04:33:01.961Z,997.12
2022-11-21T04:33:33.637Z,997.02
2022-11-21T04:34:05.897Z,997.02
2022-11-21T04:34:33.951Z,996.92
2022-11-21T04:34:53.709Z,996.92
2022-11-21T04:35:26.833Z,996.92
2022-11-21T04:35:57.631Z,997.02
2022-11-21T04:36:31.035Z,997.02
2022-11-21T04:37:01.832Z,997.12
2022-11-21T04:37:34.428Z,996.92
2022-11-21T04:38:05.604Z,996.92
2022-11-21T04:38:34.925Z,997.22
2022-11-21T04:38:53.804Z,997.22
2022-11-21T04:39:25.857Z,997.22
2022-11-21T04:39:57.666Z,996.82
2022-11-21T04:40:29.854Z,996.82
2022-11-21T04:41:01.811Z,997.12
2022-11-21T04:41:33.729Z,997.12
2022-11-21T04:42:05.699Z,997.12
2022-11-21T04:42:34.171Z,996.92
2022-11-21T04:42:54.670Z,996.92
2022-11-21T04:43:25.881Z,996.92
2022-11-21T04:43:58.408Z,996.92
2022-11-21T04:44:30.079Z,996.92
2022-11-21T04:45:03.269Z,997.02
2022-11-21T04:45:34.388Z,996.92
2022-11-21T04:46:06.657Z,996.92
2022-11-21T04:46:34.019Z,996.82
2022-11-21T04:46:53.811Z,996.82
2022-11-21T04:47:25.815Z,996.82
2022-11-21T04:47:57.660Z,997.02
2022-11-21T04:48:29.690Z,997.02
2022-11-21T04:49:02.144Z,997.02
2022-11-21T04:49:33.791Z,997.02
2022-11-21T04:50:06.010Z,997.02
2022-11-21T04:50:34.569Z,997.02
2022-11-21T04:50:53.916Z,997.02
2022-11-21T04:51:26.575Z,997.02
2022-11-21T04:51:57.664Z,997.02
2022-11-21T04:52:30.542Z,997.02
2022-11-21T04:53:01.831Z,997.02
2022-11-21T04:53:40.004Z,997.02
2022-11-21T04:54:05.660Z,997.02
2022-11-21T04:54:34.421Z,996.92
2022-11-21T04:54:53.668Z,996.92
2022-11-21T04:55:26.123Z,996.92
2022-11-21T04:55:58.546Z,996.92
2022-11-21T04:56:29.611Z,996.92
2022-11-21T04:57:02.575Z,996.82
2022-11-21T04:57:33.905Z,996.92
2022-11-21T04:58:06.797Z,996.92
2022-11-21T04:58:34.071Z,996.92
2022-11-21T04:58:53.667Z,996.92
2022-11-21T04:59:25.787Z,996.92
2022-11-21T04:59:57.841Z,997.02
2022-11-21T05:00:29.797Z,997.02
2022-11-21T05:01:01.613Z,996.92
2022-11-21T05:01:33.840Z,997.02
2022-11-21T05:02:05.867Z,997.02
2022-11-21T05:02:34.058Z,996.82
2022-11-21T05:02:53.644Z,996.82
2022-11-21T05:03:26.632Z,996.82
2022-11-21T05:03:57.809Z,997.02
2022-11-21T05:04:30.992Z,997.02
2022-11-21T05:05:01.834Z,996.82
2022-11-21T05:05:35.655Z,996.82
2022-11-21T05:06:05.960Z,996.82
2022-11-21T05:06:33.957Z,997.02
2022-11-21T05:06:53.605Z,997.02
2022-11-21T05:07:25.744Z,997.02
2022-11-21T05:07:58.690Z,996.82
2022-11-21T05:08:29.910Z,996.82
2022-11-21T05:09:02.521Z,997.22
2022-11-21T05:09:33.669Z,996.92
2022-11-21T05:10:06.817Z,996.92
2022-11-21T05:10:33.971Z,997.02
2022-11-21T05:10:53.936Z,997.02
2022-11-21T05:11:25.851Z,997.02
2022-11-21T05:11:57.692Z,996.82
2022-11-21T05:12:29.763Z,996.82
2022-11-21T05:13:01.863Z,997.02
2022-11-21T05:13:33.819Z,996.92
2022-11-21T05:14:05.614Z,996.92
2022-11-21T05:14:34.028Z,996.71
2022-11-21T05:14:54.378Z,996.71
2022-11-21T05:15:26.057Z,996.71
2022-11-21T05:15:58.431Z,996.92
2022-11-21T05:16:29.750Z,996.92
2022-11-21T05:17:02.631Z,996.82
2022-11-21T05:17:33.715Z,996.92
2022-11-21T05:18:06.522Z,996.92
2022-11-21T05:18:34.072Z,997.02
2022-11-21T05:18:53.803Z,997.02
2022-11-21T05:19:25.851Z,997.02
2022-11-21T05:19:57.640Z,996.71
2022-11-21T05:20:32.317Z,996.71
2022-11-21T05:21:01.801Z,997.02
2022-11-21T05:21:33.788Z,996.82
2022-11-21T05:22:05.714Z,996.82
2022-11-21T05:22:34.093Z,996.92
2022-11-21T05:22:53.691Z,996.92
2022-11-21T05:23:26.706Z,996.92
2022-11-21T05:23:57.770Z,996.82
2022-11-21T05:24:30.641Z,996.82
2022-11-21T05:25:01.847Z,996.82
2022-11-21T05:25:35.000Z,996.82
2022-11-21T05:26:05.832Z,996.82
2022-11-21T05:26:34.130Z,997.02
2022-11-21T05:26:53.604Z,997.02
2022-11-21T05:27:25.775Z,997.02
2022-11-21T05:27:59.042Z,996.92
2022-11-21T05:28:29.656Z,996.92
2022-11-21T05:29:02.654Z,996.71
2022-11-21T05:29:33.767Z,996.82
2022-11-21T05:30:06.855Z,996.82
2022-11-21T05:30:33.991Z,996.82
2022-11-21T05:30:53.774Z,996.82
2022-11-21T05:31:25.808Z,996.82
2022-11-21T05:31:57.874Z,996.71
2022-11-21T05:32:29.625Z,996.71
2022-11-21T05:33:01.799Z,996.71
2022-11-21T05:33:33.710Z,996.71
2022-11-21T05:34:05.883Z,996.71
2022-11-21T05:34:34.204Z,996.61
2022-11-21T05:34:53.656Z,996.61
2022-11-21T05:35:26.897Z,996.61
2022-11-21T05:35:57.797Z,996.61
2022-11-21T05:36:30.587Z,996.61
2022-11-21T05:37:01.691Z,996.61
2022-11-21T05:37:34.739Z,996.82
2022-11-21T05:38:05.822Z,996.82
2022-11-21T05:38:34.389Z,996.61
2022-11-21T05:38:53.791Z,996.61
2022-11-21T05:39:25.689Z,996.61
2022-11-21T05:39:58.667Z,996.71
2022-11-21T05:40:29.978Z,996.71
2022-11-21T05:41:02.458Z,996.71
2022-11-21T05:41:33.646Z,996.61
2022-11-21T05:42:06.730Z,996.61
2022-11-21T05:42:34.113Z,996.71
2022-11-21T05:42:53.754Z,996.71
2022-11-21T05:43:25.929Z,996.71
2022-11-21T05:43:57.674Z,996.61
2022-11-21T05:44:30.056Z,996.61
2022-11-21T05:45:02.041Z,996.61
2022-11-21T05:45:33.816Z,996.82
2022-11-21T05:46:05.641Z,996.82
2022-11-21T05:46:34.145Z,996.82
2022-11-21T05:46:53.793Z,996.82
2022-11-21T05:47:26.318Z,996.82
2022-11-21T05:47:57.688Z,996.71
2022-11-21T05:48:30.626Z,996.71
2022-11-21T05:49:01.839Z,996.61
2022-11-21T05:49:34.449Z,996.82
2022-11-21T05:50:05.856Z,996.82
2022-11-21T05:50:35.161Z,996.82
2022-11-21T05:50:53.779Z,996.82
2022-11-21T05:51:25.838Z,996.82
2022-11-21T05:51:57.792Z,996.61
2022-11-21T05:52:29.640Z,996.61
2022-11-21T05:53:01.645Z,996.82
2022-11-21T05:53:33.828Z,996.71
2022-11-21T05:54:05.879Z,996.71
2022-11-21T05:54:33.991Z,996.82
2022-11-21T05:54:54.417Z,996.82
2022-11-21T05:55:25.786Z,996.82
2022-11-21T05:55:58.469Z,996.92
2022-11-21T05:56:29.811Z,996.92
2022-11-21T05:57:02.349Z,996.71
2022-11-21T05:57:34.009Z,996.71
2022-11-21T05:58:06.600Z,996.71
2022-11-21T05:58:34.929Z,996.71
2022-11-21T05:58:53.975Z,996.71
2022-11-21T05:59:25.703Z,996.71
2022-11-21T05:59:57.744Z,996.41
2022-11-21T06:00:29.951Z,996.41
2022-11-21T06:01:01.694Z,996.71
2022-11-21T06:01:33.676Z,996.82
2022-11-21T06:02:05.708Z,996.82
2022-11-21T06:02:34.084Z,996.61
2022-11-21T06:02:54.174Z,996.61
2022-11-21T06:03:26.431Z,996.61
2022-11-21T06:03:57.682Z,996.61
2022-11-21T06:04:30.564Z,996.61
2022-11-21T06:05:02.051Z,996.71
2022-11-21T06:05:34.637Z,996.61
2022-11-21T06:06:05.687Z,996.61
2022-11-21T06:06:35.751Z,996.61
2022-11-21T06:06:53.907Z,996.61
2022-11-21T06:07:25.900Z,996.61
2022-11-21T06:07:57.787Z,996.61
2022-11-21T06:08:29.695Z,996.61
2022-11-21T06:09:01.806Z,996.61
2022-11-21T06:09:33.823Z,996.51
2022-11-21T06:10:06.653Z,996.51
2022-11-21T06:10:34.167Z,996.61
2022-11-21T06:10:53.892Z,996.61
2022-11-21T06:11:25.877Z,996.61
2022-11-21T06:11:57.642Z,996.61
2022-11-21T06:12:29.657Z,996.61
2022-11-21T06:13:01.714Z,996.82
2022-11-21T06:13:33.838Z,996.71
2022-11-21T06:14:05.899Z,996.71
2022-11-21T06:14:34.205Z,996.71